Time;durP1;ratioP1;P1;durP2;ratioP2;P2;SDS_P1;SDS_P2;PMS_P1;PMS_P2;Temp;Humidity;BMP_temperature;BMP_pressure;BME280_temperature;BME280_humidity;BME280_pressure;Samples;Min_cycle;Max_cycle;Signal;HPM_P1;HPM_P2
2022/12/09 00:00:05;;;;;;;6.63;5.13;;;;;;;;;;1626720;86;21501;-51
2022/12/09 00:02:31;;;;;;;4.57;3.17;;;;;;;;;;1623020;87;21231;-50
2022/12/09 00:04:58;;;;;;;3.77;2.60;;;;;;;;;;1625864;87;21074;-50
2022/12/09 00:07:24;;;;;;;5.57;3.07;;;;;;;;;;1633582;85;21098;-50
2022/12/09 00:09:50;;;;;;;4.23;3.13;;;;;;;;;;1636852;87;21098;-50
2022/12/09 00:12:16;;;;;;;5.47;3.73;;;;;;;;;;1631663;87;21069;-51
2022/12/09 00:14:42;;;;;;;4.23;2.60;;;;;;;;;;1632601;87;21976;-50
2022/12/09 00:17:08;;;;;;;5.83;3.10;;;;;;;;;;1633597;87;22156;-51
2022/12/09 00:19:35;;;;;;;5.20;2.97;;;;;;;;;;1633668;87;21196;-50
2022/12/09 00:22:01;;;;;;;5.93;3.60;;;;;;;;;;1633788;86;21101;-50
2022/12/09 00:24:27;;;;;;;5.07;3.43;;;;;;;;;;1634578;87;21857;-50
2022/12/09 00:26:53;;;;;;;6.10;3.80;;;;;;;;;;1633202;86;21862;-50
2022/12/09 00:29:20;;;;;;;4.67;2.60;;;;;;;;;;1631750;87;21058;-50
2022/12/09 00:31:46;;;;;;;8.13;5.37;;;;;;;;;;1636258;86;21050;-51
2022/12/09 00:34:12;;;;;;;8.50;5.73;;;;;;;;;;1632638;86;21038;-50
2022/12/09 00:36:38;;;;;;;4.70;3.43;;;;;;;;;;1632518;87;21070;-50
2022/12/09 00:39:05;;;;;;;4.97;3.43;;;;;;;;;;1635553;87;21866;-50
2022/12/09 00:41:31;;;;;;;6.90;4.23;;;;;;;;;;1634619;87;21705;-50
2022/12/09 00:43:57;;;;;;;7.00;4.03;;;;;;;;;;1635639;87;21383;-50
2022/12/09 00:46:23;;;;;;;4.03;2.80;;;;;;;;;;1633849;87;21085;-50
2022/12/09 00:48:49;;;;;;;4.73;2.90;;;;;;;;;;1634172;87;22280;-50
2022/12/09 00:51:17;;;;;;;7.00;4.30;;;;;;;;;;1635298;87;21845;-51
2022/12/09 00:53:43;;;;;;;4.37;3.33;;;;;;;;;;1632017;86;21089;-50
2022/12/09 00:56:10;;;;;;;7.00;5.10;;;;;;;;;;1636294;87;21089;-51
2022/12/09 00:58:36;;;;;;;8.00;5.23;;;;;;;;;;1636704;85;21073;-50
2022/12/09 01:01:03;;;;;;;15.30;11.90;;;;;;;;;;1633812;86;21038;-51
2022/12/09 01:03:29;;;;;;;19.80;16.10;;;;;;;;;;1633759;87;22189;-50
2022/12/09 01:05:55;;;;;;;10.83;8.87;;;;;;;;;;1632688;87;22010;-50
2022/12/09 01:08:21;;;;;;;6.80;5.50;;;;;;;;;;1626494;87;21109;-51
2022/12/09 01:10:48;;;;;;;8.03;6.03;;;;;;;;;;1624392;87;21059;-51
2022/12/09 01:13:14;;;;;;;8.43;5.33;;;;;;;;;;1621392;87;21062;-50
2022/12/09 01:15:41;;;;;;;12.20;7.23;;;;;;;;;;1654828;86;24204;-50
2022/12/09 01:18:07;;;;;;;8.87;6.30;;;;;;;;;;1654687;85;21563;-50
2022/12/09 01:20:33;;;;;;;8.57;4.77;;;;;;;;;;1651867;85;22458;-50
2022/12/09 01:23:00;;;;;;;6.37;4.00;;;;;;;;;;1655460;86;21145;-51
2022/12/09 01:25:27;;;;;;;4.13;2.97;;;;;;;;;;1651369;86;21070;-50
2022/12/09 01:27:53;;;;;;;4.27;2.87;;;;;;;;;;1658535;86;22149;-51
2022/12/09 01:30:19;;;;;;;4.27;3.67;;;;;;;;;;1657277;86;21160;-50
2022/12/09 01:32:46;;;;;;;2.80;1.93;;;;;;;;;;1652926;86;21051;-51
2022/12/09 01:35:13;;;;;;;6.00;3.07;;;;;;;;;;1654912;85;21064;-50
2022/12/09 01:37:39;;;;;;;14.03;9.30;;;;;;;;;;1658969;84;21062;-50
2022/12/09 01:40:08;;;;;;;17.03;10.17;;;;;;;;;;1656305;86;22505;-51
2022/12/09 01:42:34;;;;;;;6.17;4.70;;;;;;;;;;1654793;86;21070;-50
2022/12/09 01:45:29;;;;;;;6.50;3.43;;;;;;;;;;1656764;86;21524;-50
2022/12/09 01:47:53;;;;;;;5.03;4.07;;;;;;;;;;1655064;86;21070;-50
2022/12/09 01:50:19;;;;;;;4.43;3.73;;;;;;;;;;1651556;86;21580;-50
2022/12/09 01:52:46;;;;;;;9.97;6.27;;;;;;;;;;1655282;84;21953;-50
2022/12/09 01:55:12;;;;;;;6.17;3.70;;;;;;;;;;1656804;84;21682;-51
2022/12/09 01:57:39;;;;;;;5.43;3.57;;;;;;;;;;1649476;86;21047;-51
2022/12/09 02:00:06;;;;;;;5.73;3.20;;;;;;;;;;1656803;84;21390;-51
2022/12/09 02:02:36;;;;;;;5.60;3.53;;;;;;;;;;1622842;87;21666;-50
2022/12/09 02:05:03;;;;;;;5.77;3.33;;;;;;;;;;1623729;87;21848;-50
2022/12/09 02:07:29;;;;;;;4.13;2.90;;;;;;;;;;1623659;87;21517;-51
2022/12/09 02:09:55;;;;;;;2.80;2.10;;;;;;;;;;1622534;87;21035;-51
2022/12/09 02:12:30;;;;;;;4.73;2.87;;;;;;;;;;1651266;86;21016;-51
2022/12/09 02:15:02;;;;;;;5.27;3.23;;;;;;;;;;1657979;86;21059;-51
2022/12/09 02:17:32;;;;;;;6.17;3.63;;;;;;;;;;1649627;86;21774;-50
2022/12/09 02:20:06;;;;;;;6.67;4.40;;;;;;;;;;1634735;85;21008;-51
2022/12/09 02:25:02;;;;;;;7.43;4.73;;;;;;;;;;1792055;78;27901;-51
2022/12/09 02:27:35;;;;;;;6.60;3.93;;;;;;;;;;1714919;81;22128;-51
2022/12/09 02:30:09;;;;;;;13.70;7.33;;;;;;;;;;1748381;80;22194;-51
2022/12/09 02:33:09;;;;;;;15.37;7.10;;;;;;;;;;1742711;81;21051;-51
2022/12/09 02:35:45;;;;;;;9.50;4.73;;;;;;;;;;1741183;80;21089;-51
2022/12/09 02:38:18;;;;;;;19.47;8.70;;;;;;;;;;1711723;81;21005;-50
2022/12/09 02:40:50;;;;;;;7.77;4.47;;;;;;;;;;1740449;81;21468;-51
2022/12/09 02:43:17;;;;;;;14.23;6.87;;;;;;;;;;1741263;81;21823;-51
2022/12/09 02:45:43;;;;;;;12.40;7.13;;;;;;;;;;1739744;81;20998;-52
2022/12/09 02:48:11;;;;;;;21.53;11.97;;;;;;;;;;1741834;81;20994;-50
2022/12/09 02:50:37;;;;;;;86.73;44.60;;;;;;;;;;1740462;81;21551;-51
2022/12/09 02:53:05;;;;;;;52.30;29.00;;;;;;;;;;1711358;81;20987;-51
2022/12/09 02:55:32;;;;;;;26.70;15.90;;;;;;;;;;1732974;81;21902;-50
2022/12/09 02:57:59;;;;;;;25.83;14.50;;;;;;;;;;1741469;80;21057;-51
2022/12/09 03:00:26;;;;;;;12.37;8.63;;;;;;;;;;1739631;80;21435;-52
2022/12/09 03:02:54;;;;;;;12.93;9.17;;;;;;;;;;1741745;80;21068;-51
2022/12/09 03:05:33;;;;;;;9.57;5.67;;;;;;;;;;1742043;80;21622;-51
2022/12/09 03:08:25;;;;;;;8.77;4.90;;;;;;;;;;1741981;80;21351;-50
2022/12/09 03:11:03;;;;;;;7.93;4.90;;;;;;;;;;1742425;80;21117;-52
2022/12/09 03:13:42;;;;;;;6.50;4.20;;;;;;;;;;1741776;80;21116;-51
2022/12/09 03:16:27;;;;;;;7.30;4.73;;;;;;;;;;1711627;81;21098;-51
2022/12/09 03:18:55;;;;;;;;;;;;;;;;;;1738829;81;21023;-50
2022/12/09 03:21:21;;;;;;;8.27;5.27;;;;;;;;;;1712783;82;22351;-50
2022/12/09 03:23:48;;;;;;;12.33;7.47;;;;;;;;;;1722093;81;21176;-51
2022/12/09 03:26:14;;;;;;;20.83;9.73;;;;;;;;;;1764129;79;21124;-51
2022/12/09 03:28:42;;;;;;;16.00;8.03;;;;;;;;;;1764124;79;21056;-51
2022/12/09 03:31:11;;;;;;;14.90;8.67;;;;;;;;;;1765960;79;21061;-51
2022/12/09 03:33:37;;;;;;;15.40;8.93;;;;;;;;;;1768374;79;21463;-51
2022/12/09 03:36:04;;;;;;;24.53;13.07;;;;;;;;;;1765614;79;21095;-50
2022/12/09 03:38:32;;;;;;;27.77;14.77;;;;;;;;;;1766186;80;21060;-51
2022/12/09 03:41:01;;;;;;;18.83;10.37;;;;;;;;;;1765477;79;21144;-52
2022/12/09 03:43:29;;;;;;;17.17;9.20;;;;;;;;;;1766250;79;21079;-50
2022/12/09 03:45:55;;;;;;;15.00;7.93;;;;;;;;;;1727397;81;22915;-50
2022/12/09 03:48:22;;;;;;;8.73;5.33;;;;;;;;;;1765559;79;22483;-51
2022/12/09 03:50:52;;;;;;;7.33;4.40;;;;;;;;;;1763560;79;21561;-51
2022/12/09 03:53:24;;;;;;;6.60;4.23;;;;;;;;;;1763588;79;21086;-51
2022/12/09 03:56:00;;;;;;;6.03;4.03;;;;;;;;;;1767285;79;21081;-51
2022/12/09 03:58:27;;;;;;;6.90;4.47;;;;;;;;;;1765506;79;23144;-50
2022/12/09 04:00:53;;;;;;;6.43;4.60;;;;;;;;;;1764618;79;21077;-51
2022/12/09 04:03:20;;;;;;;6.37;4.17;;;;;;;;;;1763220;79;21470;-51
2022/12/09 04:05:46;;;;;;;8.77;5.50;;;;;;;;;;1761896;79;21087;-50
2022/12/09 04:08:13;;;;;;;8.63;5.77;;;;;;;;;;1762077;79;21047;-51
2022/12/09 04:10:39;;;;;;;9.67;6.13;;;;;;;;;;1763064;79;23287;-50
2022/12/09 04:13:05;;;;;;;8.77;5.77;;;;;;;;;;1766968;79;21083;-51
2022/12/09 04:15:31;;;;;;;11.23;7.00;;;;;;;;;;1767556;79;21034;-51
2022/12/09 04:17:58;;;;;;;7.20;5.23;;;;;;;;;;1764995;79;21061;-50
2022/12/09 04:20:24;;;;;;;7.70;4.63;;;;;;;;;;1761435;79;21074;-51
2022/12/09 04:22:50;;;;;;;8.07;5.00;;;;;;;;;;1763426;79;21924;-51
2022/12/09 04:25:16;;;;;;;7.60;4.90;;;;;;;;;;1735695;80;21050;-51
2022/12/09 04:27:42;;;;;;;5.57;4.20;;;;;;;;;;1738120;81;21057;-51
2022/12/09 04:30:09;;;;;;;5.53;3.83;;;;;;;;;;1735940;81;21097;-51
2022/12/09 04:32:35;;;;;;;6.47;3.93;;;;;;;;;;1728877;81;21033;-51
2022/12/09 04:35:02;;;;;;;6.37;4.07;;;;;;;;;;1735162;81;21845;-51
2022/12/09 04:37:28;;;;;;;6.63;3.93;;;;;;;;;;1727482;81;21089;-56
2022/12/09 04:39:54;;;;;;;6.13;3.90;;;;;;;;;;1731029;80;21084;-52
2022/12/09 04:42:20;;;;;;;6.23;4.57;;;;;;;;;;1730316;81;21089;-51
2022/12/09 04:44:47;;;;;;;9.27;5.47;;;;;;;;;;1731576;81;21029;-51
2022/12/09 04:47:13;;;;;;;7.73;5.03;;;;;;;;;;1737330;80;21878;-50
2022/12/09 04:49:39;;;;;;;13.37;8.07;;;;;;;;;;1729729;81;21038;-51
2022/12/09 04:52:05;;;;;;;18.63;10.73;;;;;;;;;;1734595;80;21062;-52
2022/12/09 04:54:32;;;;;;;16.13;9.37;;;;;;;;;;1729563;81;20998;-50
2022/12/09 04:56:58;;;;;;;11.17;7.37;;;;;;;;;;1734316;81;21566;-52
2022/12/09 04:59:24;;;;;;;12.10;6.80;;;;;;;;;;1729022;80;21847;-51
2022/12/09 05:01:50;;;;;;;9.60;5.27;;;;;;;;;;1735201;81;21235;-50
2022/12/09 05:04:17;;;;;;;8.43;4.63;;;;;;;;;;1734049;81;21725;-51
2022/12/09 05:06:43;;;;;;;6.83;4.47;;;;;;;;;;1735893;81;21594;-51
2022/12/09 05:09:11;;;;;;;8.20;5.77;;;;;;;;;;1735347;81;21640;-52
2022/12/09 05:11:38;;;;;;;7.90;4.80;;;;;;;;;;1734796;81;21935;-51
2022/12/09 05:14:05;;;;;;;6.20;4.23;;;;;;;;;;1733500;81;21113;-52
2022/12/09 05:16:32;;;;;;;6.20;4.30;;;;;;;;;;1736600;81;20990;-50
2022/12/09 05:18:58;;;;;;;5.53;3.10;;;;;;;;;;1732880;81;20998;-51
2022/12/09 05:21:25;;;;;;;5.27;3.70;;;;;;;;;;1733078;81;21023;-50
2022/12/09 05:23:52;;;;;;;4.90;3.10;;;;;;;;;;1738105;80;21841;-50
2022/12/09 05:26:19;;;;;;;3.73;2.70;;;;;;;;;;1770436;80;21125;-51
2022/12/09 05:28:46;;;;;;;4.07;2.80;;;;;;;;;;1768843;79;21505;-51
2022/12/09 05:31:15;;;;;;;6.00;3.30;;;;;;;;;;1767605;79;20980;-51
2022/12/09 05:33:42;;;;;;;3.57;2.40;;;;;;;;;;1767357;79;20994;-51
2022/12/09 05:36:09;;;;;;;5.97;3.23;;;;;;;;;;1769429;79;22391;-51
2022/12/09 05:38:36;;;;;;;3.80;2.77;;;;;;;;;;1767287;79;21053;-51
2022/12/09 05:41:02;;;;;;;5.03;3.07;;;;;;;;;;1767816;79;21037;-51
2022/12/09 05:43:28;;;;;;;6.27;4.17;;;;;;;;;;1769997;79;20971;-51
2022/12/09 05:45:54;;;;;;;4.23;2.73;;;;;;;;;;1763830;79;21140;-51
2022/12/09 05:48:20;;;;;;;7.10;4.53;;;;;;;;;;1763740;79;21509;-51
2022/12/09 05:50:57;;;;;;;7.90;4.83;;;;;;;;;;1762138;79;21538;-50
2022/12/09 05:53:24;;;;;;;7.43;4.70;;;;;;;;;;1763769;79;22267;-51
2022/12/09 05:55:50;;;;;;;8.03;4.33;;;;;;;;;;1766671;79;21105;-52
2022/12/09 05:58:16;;;;;;;7.50;4.43;;;;;;;;;;1764445;79;21086;-52
2022/12/09 06:00:42;;;;;;;7.80;4.80;;;;;;;;;;1763521;79;21863;-52
2022/12/09 06:03:08;;;;;;;6.00;4.03;;;;;;;;;;1762336;79;21188;-52
2022/12/09 06:05:35;;;;;;;7.07;3.90;;;;;;;;;;1763639;79;22279;-51
2022/12/09 06:08:02;;;;;;;6.47;4.30;;;;;;;;;;1767870;79;21379;-52
2022/12/09 06:10:29;;;;;;;7.77;4.33;;;;;;;;;;1762547;79;21102;-51
2022/12/09 06:12:56;;;;;;;7.63;4.20;;;;;;;;;;1766355;79;21899;-52
2022/12/09 06:15:22;;;;;;;7.37;4.70;;;;;;;;;;1766652;79;21064;-51
2022/12/09 06:17:48;;;;;;;6.77;4.00;;;;;;;;;;1767178;79;21097;-51
2022/12/09 06:20:14;;;;;;;7.53;5.03;;;;;;;;;;1766702;80;21057;-52
2022/12/09 06:22:40;;;;;;;8.23;4.43;;;;;;;;;;1766032;79;21113;-51
2022/12/09 06:25:07;;;;;;;6.03;3.87;;;;;;;;;;1770550;79;21820;-50
2022/12/09 06:27:33;;;;;;;8.30;4.43;;;;;;;;;;1771377;79;21636;-47
2022/12/09 06:29:59;;;;;;;7.93;4.27;;;;;;;;;;1769356;79;21147;-49
2022/12/09 06:32:25;;;;;;;9.53;5.33;;;;;;;;;;1768951;79;21819;-48
2022/12/09 06:34:51;;;;;;;8.10;4.37;;;;;;;;;;1768733;79;21028;-47
2022/12/09 06:37:17;;;;;;;8.90;5.20;;;;;;;;;;1729941;82;21945;-51
2022/12/09 06:39:43;;;;;;;7.73;5.30;;;;;;;;;;1765199;80;21551;-51
2022/12/09 06:42:09;;;;;;;5.50;3.93;;;;;;;;;;1770088;79;21031;-51
2022/12/09 06:44:38;;;;;;;11.10;5.80;;;;;;;;;;1771712;79;21405;-51
2022/12/09 06:48:54;;;;;;;9.70;5.63;;;;;;;;;;1773986;78;27411;-52
2022/12/09 06:51:21;;;;;;;8.83;6.07;;;;;;;;;;1746838;80;21065;-49
2022/12/09 06:53:48;;;;;;;8.20;5.67;;;;;;;;;;1744295;80;22907;-48
2022/12/09 06:56:14;;;;;;;8.00;4.90;;;;;;;;;;1744015;80;21566;-49
2022/12/09 06:58:41;;;;;;;10.03;5.97;;;;;;;;;;1749167;80;21105;-50
2022/12/09 07:01:12;;;;;;;9.33;6.30;;;;;;;;;;1741044;80;21073;-48
2022/12/09 07:03:41;;;;;;;10.77;6.23;;;;;;;;;;1734707;80;22484;-48
2022/12/09 07:06:14;;;;;;;10.80;6.83;;;;;;;;;;1732694;80;22943;-52
2022/12/09 07:08:40;;;;;;;13.23;7.47;;;;;;;;;;1716964;80;21420;-50
2022/12/09 07:11:06;;;;;;;11.70;7.00;;;;;;;;;;1730570;80;22364;-50
2022/12/09 07:13:33;;;;;;;10.50;5.80;;;;;;;;;;1733166;80;21165;-50
2022/12/09 07:15:59;;;;;;;12.90;7.17;;;;;;;;;;1731408;80;21038;-49
2022/12/09 07:18:25;;;;;;;13.47;6.67;;;;;;;;;;1727046;80;21840;-52
2022/12/09 07:20:52;;;;;;;14.90;7.23;;;;;;;;;;1729948;80;21136;-52
2022/12/09 07:23:18;;;;;;;12.23;7.20;;;;;;;;;;1731971;80;21534;-49
2022/12/09 07:25:44;;;;;;;12.60;6.60;;;;;;;;;;1728020;80;21119;-50
2022/12/09 07:28:10;;;;;;;12.77;7.07;;;;;;;;;;1685144;80;21061;-51
2022/12/09 07:30:37;;;;;;;12.90;6.77;;;;;;;;;;1727089;80;21818;-52
2022/12/09 07:33:03;;;;;;;10.87;6.50;;;;;;;;;;1732336;80;21026;-49
2022/12/09 07:35:29;;;;;;;14.10;7.70;;;;;;;;;;1732839;80;21025;-52
2022/12/09 07:37:56;;;;;;;18.13;9.03;;;;;;;;;;1728981;80;21096;-48
2022/12/09 07:40:22;;;;;;;16.93;9.57;;;;;;;;;;1727640;80;21026;-48
2022/12/09 07:42:48;;;;;;;15.47;7.97;;;;;;;;;;1728753;80;21936;-48
2022/12/09 07:45:16;;;;;;;13.50;7.93;;;;;;;;;;1729729;80;21571;-48
2022/12/09 07:47:42;;;;;;;13.40;7.97;;;;;;;;;;1732315;80;21175;-51
2022/12/09 07:50:10;;;;;;;15.37;8.67;;;;;;;;;;1734432;80;21057;-50
2022/12/09 07:52:36;;;;;;;15.53;7.33;;;;;;;;;;1731729;80;21057;-52
2022/12/09 07:55:03;;;;;;;19.30;9.97;;;;;;;;;;1729528;80;21843;-50
2022/12/09 07:57:29;;;;;;;18.07;10.37;;;;;;;;;;1728659;80;21042;-48
2022/12/09 07:59:55;;;;;;;16.20;8.67;;;;;;;;;;1732336;80;21041;-52
2022/12/09 08:02:21;;;;;;;15.33;8.40;;;;;;;;;;1734017;80;21481;-47
2022/12/09 08:04:48;;;;;;;17.27;9.97;;;;;;;;;;1733321;80;21053;-52
2022/12/09 08:07:14;;;;;;;17.93;9.47;;;;;;;;;;1732001;80;21818;-53
2022/12/09 08:09:40;;;;;;;22.00;10.83;;;;;;;;;;1733141;80;21144;-51
2022/12/09 08:12:06;;;;;;;20.03;10.00;;;;;;;;;;1726217;80;21530;-49
2022/12/09 08:14:32;;;;;;;17.47;10.43;;;;;;;;;;1729921;80;21046;-48
2022/12/09 08:16:58;;;;;;;18.87;10.03;;;;;;;;;;1727371;80;21070;-49
2022/12/09 08:19:24;;;;;;;16.47;10.03;;;;;;;;;;1732956;80;21783;-47
2022/12/09 08:21:51;;;;;;;15.60;8.47;;;;;;;;;;1724711;80;21113;-48
2022/12/09 08:24:17;;;;;;;19.73;10.53;;;;;;;;;;1728263;80;21358;-48
2022/12/09 08:26:43;;;;;;;16.03;9.07;;;;;;;;;;1727172;80;21054;-49
2022/12/09 08:29:11;;;;;;;20.03;10.50;;;;;;;;;;1729185;80;21152;-49
2022/12/09 08:31:39;;;;;;;22.77;11.07;;;;;;;;;;1732435;80;21809;-50
2022/12/09 08:34:05;;;;;;;19.93;11.20;;;;;;;;;;1733998;80;21006;-51
2022/12/09 08:36:31;;;;;;;18.53;9.37;;;;;;;;;;1732493;80;20994;-52
2022/12/09 08:38:59;;;;;;;22.37;11.20;;;;;;;;;;1730733;80;21323;-49
2022/12/09 08:41:36;;;;;;;24.13;11.07;;;;;;;;;;1739452;80;21018;-49
2022/12/09 08:44:18;;;;;;;17.47;10.23;;;;;;;;;;1732188;80;21791;-48
2022/12/09 08:46:46;;;;;;;16.53;10.73;;;;;;;;;;1729579;80;20971;-48
2022/12/09 08:49:18;;;;;;;21.33;11.50;;;;;;;;;;1731718;80;21021;-52
2022/12/09 08:51:45;;;;;;;22.77;13.10;;;;;;;;;;1732207;80;21053;-52
2022/12/09 08:54:11;;;;;;;25.83;12.70;;;;;;;;;;1734742;80;20993;-51
2022/12/09 08:56:37;;;;;;;27.50;12.43;;;;;;;;;;1734094;80;21789;-50
2022/12/09 08:59:03;;;;;;;23.23;12.37;;;;;;;;;;1735509;80;20986;-49
2022/12/09 09:01:33;;;;;;;18.37;11.73;;;;;;;;;;1729093;80;20975;-50
2022/12/09 09:04:00;;;;;;;15.40;9.37;;;;;;;;;;1734377;80;20978;-50
2022/12/09 09:06:27;;;;;;;19.10;11.23;;;;;;;;;;1737801;80;21085;-52
2022/12/09 09:08:55;;;;;;;19.10;11.43;;;;;;;;;;1728718;82;21831;-50
2022/12/09 09:11:22;;;;;;;18.67;11.30;;;;;;;;;;1727804;80;21034;-49
2022/12/09 09:13:50;;;;;;;20.07;10.53;;;;;;;;;;1732896;80;21123;-50
2022/12/09 09:16:21;;;;;;;14.23;9.57;;;;;;;;;;1728108;80;21573;-49
2022/12/09 09:18:47;;;;;;;15.83;9.33;;;;;;;;;;1728353;80;21081;-50
2022/12/09 09:21:15;;;;;;;17.17;9.17;;;;;;;;;;1733158;80;22960;-50
2022/12/09 09:23:41;;;;;;;13.73;10.30;;;;;;;;;;1733324;80;21049;-50
2022/12/09 09:26:18;;;;;;;25.13;14.17;;;;;;;;;;1729610;80;21034;-51
2022/12/09 09:28:44;;;;;;;28.33;15.57;;;;;;;;;;1691643;82;21522;-50
2022/12/09 09:31:13;;;;;;;18.87;11.87;;;;;;;;;;1725926;80;21081;-52
2022/12/09 09:33:39;;;;;;;18.07;9.90;;;;;;;;;;1731737;80;21759;-49
2022/12/09 09:36:07;;;;;;;37.53;17.50;;;;;;;;;;1734156;80;21660;-49
2022/12/09 09:38:33;;;;;;;19.03;10.93;;;;;;;;;;1735578;80;21046;-51
2022/12/09 09:41:00;;;;;;;25.30;13.37;;;;;;;;;;1736963;80;21025;-49
2022/12/09 09:43:33;;;;;;;27.27;14.33;;;;;;;;;;1734089;80;21610;-50
2022/12/09 09:45:59;;;;;;;16.53;10.00;;;;;;;;;;1728595;80;23396;-49
2022/12/09 09:48:27;;;;;;;20.60;11.83;;;;;;;;;;1720731;81;21664;-52
2022/12/09 09:51:14;;;;;;;16.63;10.17;;;;;;;;;;1712708;82;21051;-50
2022/12/09 09:53:41;;;;;;;16.23;10.63;;;;;;;;;;1710175;82;21595;-50
2022/12/09 09:56:23;;;;;;;12.87;9.03;;;;;;;;;;1714684;82;21495;-50
2022/12/09 09:59:01;;;;;;;15.87;9.57;;;;;;;;;;1672078;82;21251;-49
2022/12/09 10:01:31;;;;;;;15.43;10.77;;;;;;;;;;1704862;82;21061;-49
2022/12/09 10:04:19;;;;;;;13.13;10.00;;;;;;;;;;1717836;81;21090;-50
2022/12/09 10:06:51;;;;;;;11.87;7.50;;;;;;;;;;1717227;81;21065;-49
2022/12/09 10:09:39;;;;;;;13.43;8.50;;;;;;;;;;1720604;81;21133;-49
2022/12/09 10:12:30;;;;;;;14.40;9.47;;;;;;;;;;1717583;81;21949;-50
2022/12/09 10:15:05;;;;;;;12.30;8.60;;;;;;;;;;1658024;83;21317;-50
2022/12/09 10:17:44;;;;;;;10.97;7.87;;;;;;;;;;1681551;82;21081;-51
2022/12/09 10:20:13;;;;;;;10.40;7.80;;;;;;;;;;1716187;82;21522;-50
2022/12/09 10:22:51;;;;;;;9.57;6.27;;;;;;;;;;1714885;82;21515;-51
2022/12/09 10:25:21;;;;;;;8.13;6.47;;;;;;;;;;1715834;82;21843;-49
2022/12/09 10:28:07;;;;;;;9.37;6.83;;;;;;;;;;1717264;82;20971;-53
2022/12/09 10:30:34;;;;;;;8.90;7.83;;;;;;;;;;1714579;82;21026;-51
2022/12/09 10:33:00;;;;;;;11.37;8.70;;;;;;;;;;1718403;82;21073;-49
2022/12/09 10:35:27;;;;;;;12.77;8.87;;;;;;;;;;1716136;82;21362;-50
2022/12/09 10:37:55;;;;;;;14.40;10.27;;;;;;;;;;1714639;82;21892;-50
2022/12/09 10:40:24;;;;;;;15.77;11.03;;;;;;;;;;1713324;82;21022;-50
2022/12/09 10:45:52;;;;;;;14.07;10.43;;;;;;;;;;1717531;82;21057;-51
2022/12/09 10:48:20;;;;;;;9.80;8.60;;;;;;;;;;1716631;81;21068;-53
2022/12/09 10:50:47;;;;;;;11.83;8.90;;;;;;;;;;1724796;82;22468;-51
2022/12/09 10:53:13;;;;;;;35.50;16.30;;;;;;;;;;1730053;82;21615;-50
2022/12/09 10:55:42;;;;;;;22.53;11.53;;;;;;;;;;1726646;82;21551;-52
2022/12/09 10:58:17;;;;;;;13.33;9.70;;;;;;;;;;1729754;82;21574;-50
2022/12/09 11:00:45;;;;;;;10.17;8.10;;;;;;;;;;1728913;80;21081;-50
2022/12/09 11:03:21;;;;;;;12.50;8.40;;;;;;;;;;1707984;82;21837;-49
2022/12/09 11:05:54;;;;;;;11.47;8.57;;;;;;;;;;1731701;82;21538;-50
2022/12/09 11:08:21;;;;;;;12.83;9.23;;;;;;;;;;1729546;82;21343;-52
2022/12/09 11:10:48;;;;;;;11.80;7.93;;;;;;;;;;1731750;82;21554;-51
2022/12/09 13:00:50;;;;;;;15.43;12.00;;;;;;;;;;1840966;75;27280;-52
2022/12/09 13:03:26;;;;;;;25.97;12.77;;;;;;;;;;1819935;77;21157;-52
2022/12/09 13:05:54;;;;;;;17.50;11.23;;;;;;;;;;1816197;77;21842;-52
2022/12/09 13:08:39;;;;;;;24.47;13.47;;;;;;;;;;1822686;77;21120;-50
2022/12/09 13:11:09;;;;;;;18.50;11.07;;;;;;;;;;1822060;77;21064;-50
2022/12/09 13:13:38;;;;;;;16.17;11.97;;;;;;;;;;1816565;77;21103;-51
2022/12/09 13:16:24;;;;;;;22.37;13.87;;;;;;;;;;1827452;77;21624;-51
2022/12/09 13:18:51;;;;;;;22.17;13.83;;;;;;;;;;1823713;77;21809;-52
2022/12/09 13:21:18;;;;;;;25.37;14.60;;;;;;;;;;1822379;77;21021;-51
2022/12/09 13:23:59;;;;;;;23.47;16.37;;;;;;;;;;1822988;77;21174;-51
2022/12/09 13:26:48;;;;;;;35.93;19.03;;;;;;;;;;1823296;77;21087;-52
2022/12/09 13:29:18;;;;;;;25.33;16.60;;;;;;;;;;1817072;77;21106;-52
2022/12/09 13:32:20;;;;;;;25.80;13.83;;;;;;;;;;1816209;77;21996;-51
2022/12/09 13:34:50;;;;;;;26.97;16.23;;;;;;;;;;1817384;77;21032;-52
2022/12/09 13:37:37;;;;;;;21.67;14.27;;;;;;;;;;1819559;77;21032;-51
2022/12/09 13:40:26;;;;;;;24.20;13.53;;;;;;;;;;1823624;77;21609;-52
2022/12/09 13:43:00;;;;;;;20.43;13.20;;;;;;;;;;1822729;77;21513;-52
2022/12/09 13:45:35;;;;;;;26.70;16.20;;;;;;;;;;1820477;77;21825;-52
2022/12/09 13:48:14;;;;;;;24.83;16.10;;;;;;;;;;1821090;77;21641;-52
2022/12/09 13:50:42;;;;;;;23.50;16.10;;;;;;;;;;1780969;78;21092;-52
2022/12/09 13:53:21;;;;;;;27.30;17.07;;;;;;;;;;1777970;78;21036;-52
2022/12/09 13:55:52;;;;;;;24.17;15.97;;;;;;;;;;1775616;78;21040;-50
2022/12/09 13:58:22;;;;;;;22.20;14.13;;;;;;;;;;1778421;78;21946;-51
2022/12/09 14:01:11;;;;;;;15.77;11.93;;;;;;;;;;1770599;78;21024;-51
2022/12/09 14:03:57;;;;;;;19.17;12.90;;;;;;;;;;1768895;79;21120;-51
2022/12/09 14:06:25;;;;;;;19.53;13.10;;;;;;;;;;1766579;79;21094;-51
2022/12/09 14:08:54;;;;;;;20.73;12.77;;;;;;;;;;1772359;79;20991;-51
2022/12/09 14:11:38;;;;;;;22.77;13.67;;;;;;;;;;1775670;79;21833;-51
2022/12/09 14:14:26;;;;;;;22.10;14.28;;;;;;;;;;1773855;79;21087;-51
2022/12/09 14:17:00;;;;;;;21.67;13.67;;;;;;;;;;1766025;79;21722;-51
2022/12/09 14:19:32;;;;;;;24.57;16.03;;;;;;;;;;1766135;79;21072;-51
2022/12/09 14:22:21;;;;;;;23.03;15.20;;;;;;;;;;1770730;79;21041;-51
2022/12/09 14:24:54;;;;;;;23.57;15.17;;;;;;;;;;1770719;79;23377;-52
2022/12/09 14:27:27;;;;;;;28.30;17.00;;;;;;;;;;1771408;79;21053;-52
2022/12/09 14:29:59;;;;;;;26.67;15.33;;;;;;;;;;1769205;79;21060;-52
2022/12/09 14:32:36;;;;;;;25.53;14.50;;;;;;;;;;1770124;79;21076;-52
2022/12/09 14:35:06;;;;;;;23.60;13.70;;;;;;;;;;1782963;79;21432;-52
2022/12/09 14:37:51;;;;;;;18.27;13.30;;;;;;;;;;1771518;79;23263;-52
2022/12/09 14:40:36;;;;;;;;;;;;;;;;;;1769629;79;21035;-52
2022/12/09 14:43:30;;;;;;;18.73;12.77;;;;;;;;;;1770520;79;20264;-52
2022/12/09 14:46:00;;;;;;;24.33;15.53;;;;;;;;;;1764052;79;21072;-52
2022/12/09 14:48:38;;;;;;;22.80;15.37;;;;;;;;;;1770113;79;21112;-52
2022/12/09 14:51:25;;;;;;;22.00;14.37;;;;;;;;;;1775346;79;23977;-52
2022/12/09 14:53:55;;;;;;;23.37;15.13;;;;;;;;;;1772095;79;20991;-53
2022/12/09 14:56:22;;;;;;;22.33;13.90;;;;;;;;;;1770190;79;21042;-52
2022/12/09 14:58:52;;;;;;;27.97;15.10;;;;;;;;;;1775254;78;21044;-52
2022/12/09 15:01:19;;;;;;;22.07;15.20;;;;;;;;;;1771389;78;21091;-52
2022/12/09 15:03:54;;;;;;;21.30;15.20;;;;;;;;;;1780966;78;22422;-52
2022/12/09 15:06:20;;;;;;;22.60;13.30;;;;;;;;;;1780484;78;21072;-52
2022/12/09 15:08:47;;;;;;;20.80;13.20;;;;;;;;;;1774790;78;21097;-52
2022/12/09 15:11:19;;;;;;;22.80;13.27;;;;;;;;;;1783538;78;21074;-52
2022/12/09 15:13:47;;;;;;;20.13;13.83;;;;;;;;;;1774113;78;21084;-52
2022/12/09 15:16:14;;;;;;;23.27;15.37;;;;;;;;;;1777931;78;21874;-52
2022/12/09 15:18:42;;;;;;;21.37;12.53;;;;;;;;;;1782804;78;21115;-52
2022/12/09 15:21:08;;;;;;;22.77;14.33;;;;;;;;;;1779548;78;21044;-53
2022/12/09 15:23:37;;;;;;;22.37;13.60;;;;;;;;;;1783228;78;21642;-52
2022/12/09 15:27:16;;;;;;;24.83;15.70;;;;;;;;;;1795123;77;27281;-51
2022/12/09 15:29:42;;;;;;;24.73;14.67;;;;;;;;;;1781688;79;21048;-51
2022/12/09 15:32:20;;;;;;;26.13;15.73;;;;;;;;;;1776942;79;23210;-51
2022/12/09 15:34:46;;;;;;;28.97;16.43;;;;;;;;;;1773693;79;21049;-52
2022/12/09 15:37:13;;;;;;;27.77;17.03;;;;;;;;;;1779666;78;21068;-53
2022/12/09 15:39:43;;;;;;;27.07;16.17;;;;;;;;;;1770653;80;21544;-53
2022/12/09 15:42:10;;;;;;;35.30;21.30;;;;;;;;;;1776348;79;21013;-52
2022/12/09 15:44:49;;;;;;;34.53;22.27;;;;;;;;;;1779660;79;21841;-52
2022/12/09 15:47:18;;;;;;;39.67;21.90;;;;;;;;;;1769557;79;21049;-53
2022/12/09 15:49:51;;;;;;;38.97;21.17;;;;;;;;;;1777484;78;21085;-53
2022/12/09 15:52:18;;;;;;;45.67;23.73;;;;;;;;;;1777142;79;21116;-52
2022/12/09 15:54:44;;;;;;;43.23;24.13;;;;;;;;;;1780068;78;21057;-52
2022/12/09 15:57:12;;;;;;;45.77;24.50;;;;;;;;;;1782183;78;23247;-52
2022/12/09 15:59:40;;;;;;;44.57;25.10;;;;;;;;;;1776547;78;21033;-53
2022/12/09 16:02:07;;;;;;;54.83;29.10;;;;;;;;;;1778651;78;21072;-52
2022/12/09 16:04:36;;;;;;;53.60;28.43;;;;;;;;;;1778044;78;21061;-52
2022/12/09 16:07:08;;;;;;;58.27;29.67;;;;;;;;;;1779648;78;21064;-52
2022/12/09 16:09:35;;;;;;;59.40;32.73;;;;;;;;;;1779011;78;21835;-52
2022/12/09 16:12:01;;;;;;;75.33;37.27;;;;;;;;;;1775605;78;21476;-52
2022/12/09 16:14:40;;;;;;;93.10;45.10;;;;;;;;;;1776796;78;21466;-52
2022/12/09 16:17:19;;;;;;;64.87;33.07;;;;;;;;;;1778093;78;21049;-52
2022/12/09 16:19:45;;;;;;;50.57;26.33;;;;;;;;;;1771011;79;21080;-52
2022/12/09 16:22:18;;;;;;;58.70;28.83;;;;;;;;;;1776996;78;21853;-52
2022/12/09 16:24:47;;;;;;;58.10;28.07;;;;;;;;;;1772719;79;22110;-52
2022/12/09 16:27:19;;;;;;;53.50;27.20;;;;;;;;;;1763798;79;21080;-52
2022/12/09 16:29:54;;;;;;;44.03;23.83;;;;;;;;;;1760687;80;21098;-52
2022/12/09 16:32:24;;;;;;;53.77;25.27;;;;;;;;;;1767029;79;22155;-53
2022/12/09 16:34:53;;;;;;;43.93;22.97;;;;;;;;;;1764225;80;21950;-53
2022/12/09 16:37:39;;;;;;;44.57;24.63;;;;;;;;;;1759976;79;21458;-53
2022/12/09 16:40:21;;;;;;;52.90;26.00;;;;;;;;;;1767219;79;21093;-53